Time;durP1;ratioP1;P1;durP2;ratioP2;P2;SDS_P1;SDS_P2;PMS_P1;PMS_P2;Temp;Humidity;BMP_temperature;BMP_pressure;BME280_temperature;BME280_humidity;BME280_pressure;Samples;Min_cycle;Max_cycle;Signal;HPM_P1;HPM_P2
2023/08/16 00:00:57;;;;;;;;;;;14.20;99.90;;;;;;5112395;28;19928;-63
2023/08/16 00:03:24;;;;;;;;;;;14.10;99.90;;;;;;5113096;28;19931;-63
2023/08/16 00:05:52;;;;;;;;;;;14.10;99.90;;;;;;5112688;28;19923;-63
2023/08/16 00:08:19;;;;;;;;;;;14.10;99.90;;;;;;5111851;28;20017;-64
2023/08/16 00:10:45;;;;;;;;;;;14.00;99.90;;;;;;5094794;28;19931;-64
2023/08/16 00:13:12;;;;;;;;;;;14.00;99.90;;;;;;5112858;28;20335;-64
2023/08/16 00:15:40;;;;;;;;;;;14.00;99.90;;;;;;5110241;28;19930;-64
2023/08/16 00:18:07;;;;;;;;;;;14.00;99.90;;;;;;5094942;28;20387;-64
2023/08/16 00:20:34;;;;;;;;;;;14.00;99.90;;;;;;5113130;28;19924;-64
2023/08/16 00:23:01;;;;;;;;;;;14.10;99.90;;;;;;5112476;28;19931;-64
2023/08/16 00:25:27;;;;;;;;;;;14.10;99.90;;;;;;5112824;28;20426;-64
2023/08/16 00:27:55;;;;;;;;;;;14.10;99.90;;;;;;5094787;28;19924;-63
2023/08/16 00:30:22;;;;;;;;;;;14.00;99.90;;;;;;5093924;28;19928;-63
2023/08/16 00:32:50;;;;;;;;;;;14.00;99.90;;;;;;5112784;28;19939;-62
2023/08/16 00:35:17;;;;;;;;;;;14.00;99.90;;;;;;5094537;28;19924;-63
2023/08/16 00:37:44;;;;;;;;;;;14.00;99.90;;;;;;5094071;28;20006;-63
2023/08/16 00:40:11;;;;;;;;;;;14.00;99.90;;;;;;5113073;28;19977;-63
2023/08/16 00:42:37;;;;;;;;;;;14.00;99.90;;;;;;5111933;28;19928;-63
2023/08/16 00:45:05;;;;;;;;;;;13.90;99.90;;;;;;5112979;28;19924;-64
2023/08/16 00:47:32;;;;;;;;;;;14.00;99.90;;;;;;5112253;28;19931;-64
2023/08/16 00:50:00;;;;;;;;;;;13.90;99.90;;;;;;5112258;28;20302;-64
2023/08/16 00:52:27;;;;;;;;;;;13.90;99.90;;;;;;5092271;28;19923;-64
2023/08/16 00:54:54;;;;;;;;;;;13.90;99.90;;;;;;5112557;28;19931;-63
2023/08/16 00:57:21;;;;;;;;;;;14.00;99.90;;;;;;5093999;28;20010;-64
2023/08/16 00:59:48;;;;;;;;;;;13.90;99.90;;;;;;5112563;28;20319;-63
2023/08/16 01:02:15;;;;;;;;;;;13.90;99.90;;;;;;5112518;28;19930;-62
2023/08/16 01:04:42;;;;;;;;;;;13.90;99.90;;;;;;5111991;28;19932;-64
2023/08/16 01:07:10;;;;;;;;;;;13.90;99.90;;;;;;5094442;28;19924;-64
2023/08/16 01:09:37;;;;;;;;;;;13.90;99.90;;;;;;5112654;28;19935;-63
2023/08/16 01:12:07;;;;;;;;;;;13.90;99.90;;;;;;5111734;28;19928;-63
2023/08/16 01:14:38;;;;;;;;;;;13.90;99.90;;;;;;5110317;28;19931;-63
2023/08/16 01:17:05;;;;;;;;;;;13.90;99.90;;;;;;5112202;28;19924;-63
2023/08/16 01:19:33;;;;;;;;;;;13.80;99.90;;;;;;5115132;28;19924;-63
2023/08/16 01:22:03;;;;;;;;;;;13.90;99.90;;;;;;5098000;28;19924;-63
2023/08/16 01:24:34;;;;;;;;;;;13.80;99.90;;;;;;5115973;28;19932;-63
2023/08/16 01:27:03;;;;;;;;;;;13.80;99.90;;;;;;5115988;28;19927;-63
2023/08/16 01:29:30;;;;;;;;;;;13.80;99.90;;;;;;5113814;28;19924;-63
2023/08/16 01:31:57;;;;;;;;;;;13.70;99.90;;;;;;5096836;28;19939;-63
2023/08/16 01:34:24;;;;;;;;;;;13.70;99.90;;;;;;5115993;28;19931;-63
2023/08/16 01:36:51;;;;;;;;;;;13.70;99.90;;;;;;5115890;28;19992;-64
2023/08/16 01:39:18;;;;;;;;;;;13.70;99.90;;;;;;5097221;28;19942;-64
2023/08/16 01:41:46;;;;;;;;;;;13.70;99.90;;;;;;5097577;28;19939;-63
2023/08/16 01:44:15;;;;;;;;;;;13.70;99.90;;;;;;5116088;28;19947;-63
2023/08/16 01:46:43;;;;;;;;;;;13.70;99.90;;;;;;5096824;28;19924;-63
2023/08/16 01:49:10;;;;;;;;;;;13.60;99.90;;;;;;5097218;28;20344;-63
2023/08/16 01:51:37;;;;;;;;;;;13.60;99.90;;;;;;5113215;28;19930;-63
2023/08/16 01:54:04;;;;;;;;;;;13.60;99.90;;;;;;5115179;28;19931;-64
2023/08/16 01:56:30;;;;;;;;;;;13.50;99.90;;;;;;5113455;28;20492;-64
2023/08/16 01:58:57;;;;;;;;;;;13.50;99.90;;;;;;5115285;28;19936;-64
2023/08/16 02:01:25;;;;;;;;;;;13.50;99.90;;;;;;5096793;28;19931;-64
2023/08/16 02:03:53;;;;;;;;;;;13.50;99.90;;;;;;5115381;28;19923;-64
2023/08/16 02:06:20;;;;;;;;;;;13.50;99.90;;;;;;5115485;28;20290;-64
2023/08/16 02:08:47;;;;;;;;;;;13.50;99.90;;;;;;5096545;28;19924;-64
2023/08/16 02:11:13;;;;;;;;;;;13.40;99.90;;;;;;5115388;28;19939;-64
2023/08/16 02:13:40;;;;;;;;;;;13.50;99.90;;;;;;5115134;28;20304;-64
2023/08/16 02:16:07;;;;;;;;;;;13.50;99.90;;;;;;5096607;28;19928;-64
2023/08/16 02:18:35;;;;;;;;;;;13.50;99.90;;;;;;5096851;28;19931;-64
2023/08/16 02:21:03;;;;;;;;;;;13.50;99.90;;;;;;5096114;28;20002;-64
2023/08/16 02:23:30;;;;;;;;;;;13.50;99.90;;;;;;5096783;28;19975;-63
2023/08/16 02:25:56;;;;;;;;;;;13.50;99.90;;;;;;5096883;28;20040;-63
2023/08/16 02:28:23;;;;;;;;;;;13.50;99.90;;;;;;5114390;28;19924;-63
2023/08/16 02:30:50;;;;;;;;;;;13.50;99.90;;;;;;5114042;28;19951;-63
2023/08/16 02:33:16;;;;;;;;;;;13.50;99.90;;;;;;5114468;28;20438;-64
2023/08/16 02:35:45;;;;;;;;;;;13.50;99.90;;;;;;5114052;28;19928;-64
2023/08/16 02:38:11;;;;;;;;;;;13.50;99.90;;;;;;5096327;28;19931;-64
2023/08/16 02:40:38;;;;;;;;;;;13.50;99.90;;;;;;5096478;28;19927;-63
2023/08/16 02:43:05;;;;;;;;;;;13.50;99.90;;;;;;5095857;28;20363;-63
2023/08/16 02:45:32;;;;;;;;;;;13.50;99.90;;;;;;5096414;28;19963;-63
2023/08/16 02:47:59;;;;;;;;;;;13.40;99.90;;;;;;5095908;28;19924;-64
2023/08/16 02:50:26;;;;;;;;;;;13.40;99.90;;;;;;5113699;28;19924;-63
2023/08/16 02:52:54;;;;;;;;;;;13.50;99.90;;;;;;5096029;28;19928;-63
2023/08/16 02:55:21;;;;;;;;;;;13.40;99.90;;;;;;5114420;28;19931;-63
2023/08/16 02:57:48;;;;;;;;;;;13.40;99.90;;;;;;5113435;28;20287;-63
2023/08/16 03:00:15;;;;;;;;;;;13.40;99.90;;;;;;5114370;28;19980;-63
2023/08/16 03:02:42;;;;;;;;;;;13.40;99.90;;;;;;5096082;28;20044;-63
2023/08/16 03:05:09;;;;;;;;;;;13.50;99.90;;;;;;5095261;28;19989;-63
2023/08/16 03:07:36;;;;;;;;;;;13.40;99.90;;;;;;5114048;28;19923;-64
2023/08/16 03:10:04;;;;;;;;;;;13.50;99.90;;;;;;5114272;28;19924;-63
2023/08/16 03:12:31;;;;;;;;;;;13.50;99.90;;;;;;5095495;28;19955;-63
2023/08/16 03:14:58;;;;;;;;;;;13.50;99.90;;;;;;5095659;28;19928;-64
2023/08/16 03:17:25;;;;;;;;;;;13.40;99.90;;;;;;5113412;28;19940;-63
2023/08/16 03:19:51;;;;;;;;;;;13.40;99.90;;;;;;5113777;28;20397;-63
2023/08/16 03:22:18;;;;;;;;;;;13.40;99.90;;;;;;5113791;28;19932;-63
2023/08/16 03:24:46;;;;;;;;;;;13.30;99.90;;;;;;5113096;28;20395;-63
2023/08/16 03:27:14;;;;;;;;;;;13.30;99.90;;;;;;5095554;28;19970;-63
2023/08/16 03:29:41;;;;;;;;;;;13.40;99.90;;;;;;5095697;28;19928;-64
2023/08/16 03:32:08;;;;;;;;;;;13.30;99.90;;;;;;5094898;28;20286;-63
2023/08/16 03:34:34;;;;;;;;;;;13.30;99.90;;;;;;5095314;28;19923;-63
2023/08/16 03:37:01;;;;;;;;;;;13.30;99.90;;;;;;5111593;28;19927;-63
2023/08/16 03:39:28;;;;;;;;;;;13.30;99.90;;;;;;5112692;28;19942;-63
2023/08/16 03:41:55;;;;;;;;;;;13.30;99.90;;;;;;5112699;28;19924;-62
2023/08/16 03:44:23;;;;;;;;;;;13.20;99.90;;;;;;5095333;28;19923;-64
2023/08/16 03:46:50;;;;;;;;;;;13.20;99.90;;;;;;5094400;28;19972;-64
2023/08/16 03:49:17;;;;;;;;;;;13.20;99.90;;;;;;5087737;28;19927;-63
2023/08/16 03:51:43;;;;;;;;;;;13.60;99.90;;;;;;5089423;28;20038;-64
2023/08/16 03:54:10;;;;;;;;;;;13.80;99.90;;;;;;5091419;28;19924;-63
2023/08/16 03:56:37;;;;;;;;;;;14.00;99.90;;;;;;5107893;28;20083;-63
2023/08/16 03:59:04;;;;;;;;;;;14.10;99.90;;;;;;5109058;28;20380;-63
2023/08/16 04:01:32;;;;;;;;;;;14.10;99.90;;;;;;5111252;28;20019;-63
2023/08/16 04:03:59;;;;;;;;;;;14.40;99.90;;;;;;5107681;28;20290;-64
2023/08/16 04:06:25;;;;;;;;;;;14.40;99.90;;;;;;5090468;28;19924;-63
2023/08/16 04:08:52;;;;;;;;;;;14.40;99.90;;;;;;5091739;28;19950;-64
2023/08/16 04:11:19;;;;;;;;;;;14.80;99.90;;;;;;5110886;28;19924;-64
2023/08/16 04:13:46;;;;;;;;;;;14.40;99.90;;;;;;5109532;28;20417;-64
2023/08/16 04:16:12;;;;;;;;;;;14.50;99.90;;;;;;5093702;28;19931;-63
2023/08/16 04:18:40;;;;;;;;;;;14.50;99.90;;;;;;5092331;28;19928;-64
2023/08/16 04:21:07;;;;;;;;;;;14.60;99.90;;;;;;5091804;28;19938;-63
2023/08/16 04:23:34;;;;;;;;;;;14.50;99.90;;;;;;5108941;28;19924;-64
2023/08/16 04:26:01;;;;;;;;;;;14.60;99.90;;;;;;5107695;28;20724;-64
2023/08/16 04:28:28;;;;;;;;;;;14.70;99.90;;;;;;5090091;28;19935;-64
2023/08/16 04:30:54;;;;;;;;;;;14.60;99.90;;;;;;5109128;28;19972;-63
2023/08/16 04:33:21;;;;;;;;;;;14.60;99.90;;;;;;5109431;28;19984;-64
2023/08/16 04:35:49;;;;;;;;;;;14.80;99.90;;;;;;5089492;28;19931;-64
2023/08/16 04:38:16;;;;;;;;;;;14.90;99.90;;;;;;5110640;28;20387;-63
2023/08/16 04:40:42;;;;;;;;;;;14.90;99.90;;;;;;5106382;28;19932;-64
2023/08/16 04:43:09;;;;;;;;;;;14.90;99.90;;;;;;5111136;28;19923;-63
2023/08/16 04:45:36;;;;;;;;;;;14.90;99.90;;;;;;5092808;28;19928;-63
2023/08/16 04:48:03;;;;;;;;;;;14.80;99.90;;;;;;5093246;28;19931;-63
2023/08/16 04:50:30;;;;;;;;;;;14.80;99.90;;;;;;5109455;28;19923;-63
2023/08/16 04:52:58;;;;;;;;;;;14.80;99.90;;;;;;5112462;28;20708;-64
2023/08/16 04:55:25;;;;;;;;;;;15.00;99.90;;;;;;5096588;28;19923;-63
2023/08/16 04:57:52;;;;;;;;;;;15.10;99.90;;;;;;5114965;28;19930;-64
2023/08/16 05:00:19;;;;;;;;;;;15.00;99.90;;;;;;5113740;28;20471;-64
2023/08/16 05:02:46;;;;;;;;;;;15.30;99.90;;;;;;5094485;28;19923;-63
2023/08/16 05:05:13;;;;;;;;;;;15.30;99.90;;;;;;5113053;28;19924;-64
2023/08/16 05:07:39;;;;;;;;;;;15.30;99.90;;;;;;5096600;28;19924;-64
2023/08/16 05:10:08;;;;;;;;;;;15.50;99.90;;;;;;5093468;28;20384;-63
2023/08/16 05:12:35;;;;;;;;;;;15.50;99.90;;;;;;5094276;28;19973;-64
2023/08/16 05:15:01;;;;;;;;;;;15.50;99.90;;;;;;5114786;28;19932;-64
2023/08/16 05:17:28;;;;;;;;;;;15.80;99.90;;;;;;5093250;28;20413;-64
2023/08/16 05:19:55;;;;;;;;;;;15.90;99.90;;;;;;5110255;28;19928;-64
2023/08/16 05:22:22;;;;;;;;;;;15.90;99.90;;;;;;5113973;28;19923;-64
2023/08/16 05:24:49;;;;;;;;;;;16.00;99.90;;;;;;5112261;28;20487;-64
2023/08/16 05:27:17;;;;;;;;;;;16.20;99.90;;;;;;5114324;27;20334;-64
2023/08/16 05:29:44;;;;;;;;;;;16.20;99.90;;;;;;5111787;28;20386;-64
2023/08/16 05:32:11;;;;;;;;;;;16.30;99.90;;;;;;5112391;28;19931;-64
2023/08/16 05:34:37;;;;;;;;;;;16.30;99.90;;;;;;5094395;28;19931;-64
2023/08/16 05:37:06;;;;;;;;;;;16.20;99.90;;;;;;5114026;28;19923;-64
2023/08/16 05:39:33;;;;;;;;;;;16.00;99.90;;;;;;5093952;28;19950;-64
2023/08/16 05:41:59;;;;;;;;;;;15.90;99.90;;;;;;5114857;28;19931;-64
2023/08/16 05:44:27;;;;;;;;;;;15.80;99.90;;;;;;5096880;28;20387;-64
2023/08/16 05:46:54;;;;;;;;;;;15.80;99.90;;;;;;5096870;28;19973;-64
2023/08/16 05:49:21;;;;;;;;;;;15.80;99.90;;;;;;5115242;28;20379;-64
2023/08/16 05:51:48;;;;;;;;;;;16.00;99.90;;;;;;5115432;28;20030;-64
2023/08/16 05:54:14;;;;;;;;;;;16.10;99.90;;;;;;5114466;28;19943;-64
2023/08/16 05:56:41;;;;;;;;;;;16.10;99.90;;;;;;5115099;28;20034;-64
2023/08/16 05:59:08;;;;;;;;;;;16.20;99.90;;;;;;5096598;28;19928;-64
2023/08/16 06:01:36;;;;;;;;;;;16.30;99.90;;;;;;5115099;28;20015;-64
2023/08/16 06:04:03;;;;;;;;;;;16.50;99.90;;;;;;5096032;28;19947;-64
2023/08/16 06:06:30;;;;;;;;;;;16.70;99.90;;;;;;5096201;28;19934;-64
2023/08/16 06:08:56;;;;;;;;;;;16.90;99.90;;;;;;5115160;28;20014;-64
2023/08/16 06:11:23;;;;;;;;;;;17.10;99.90;;;;;;5094935;28;19924;-64
2023/08/16 06:13:50;;;;;;;;;;;17.30;99.90;;;;;;5114315;28;20280;-64
2023/08/16 06:16:17;;;;;;;;;;;17.50;99.90;;;;;;5096780;28;19928;-64
2023/08/16 06:18:45;;;;;;;;;;;17.70;99.90;;;;;;5115033;28;19938;-63
2023/08/16 06:21:12;;;;;;;;;;;17.80;99.90;;;;;;5114498;28;19924;-64
2023/08/16 06:23:40;;;;;;;;;;;17.80;99.90;;;;;;5115036;28;20318;-64
2023/08/16 06:26:07;;;;;;;;;;;18.00;99.90;;;;;;5114772;28;19924;-63
2023/08/16 06:28:33;;;;;;;;;;;18.20;99.90;;;;;;5114047;28;19931;-63
2023/08/16 06:31:00;;;;;;;;;;;18.40;99.90;;;;;;5114804;28;19935;-63
2023/08/16 06:33:27;;;;;;;;;;;18.70;99.90;;;;;;5112404;28;20376;-63
2023/08/16 06:35:55;;;;;;;;;;;19.10;99.90;;;;;;5096023;28;19993;-63
2023/08/16 06:38:22;;;;;;;;;;;19.40;99.90;;;;;;5112513;28;19924;-63
2023/08/16 06:40:49;;;;;;;;;;;19.90;99.90;;;;;;5114664;28;19924;-63
2023/08/16 06:43:16;;;;;;;;;;;20.40;99.90;;;;;;5095920;28;20367;-63
2023/08/16 06:45:43;;;;;;;;;;;20.70;99.90;;;;;;5114247;28;19934;-63
2023/08/16 06:48:09;;;;;;;;;;;21.10;99.90;;;;;;5095748;28;19924;-63
2023/08/16 06:50:36;;;;;;;;;;;21.70;99.90;;;;;;5113892;28;19923;-63
2023/08/16 06:53:04;;;;;;;;;;;22.20;99.90;;;;;;5095974;28;19923;-63
2023/08/16 06:55:31;;;;;;;;;;;22.60;99.90;;;;;;5111433;28;20002;-63
2023/08/16 06:57:58;;;;;;;;;;;23.10;99.90;;;;;;5114376;28;19976;-64
2023/08/16 07:00:24;;;;;;;;;;;23.40;99.90;;;;;;5093885;28;19924;-64
2023/08/16 07:02:51;;;;;;;;;;;23.90;99.90;;;;;;5113706;28;19924;-64
2023/08/16 07:05:18;;;;;;;;;;;23.60;99.90;;;;;;5113926;28;19924;-64
2023/08/16 07:07:45;;;;;;;;;;;23.90;99.90;;;;;;5095598;28;19923;-64
2023/08/16 07:10:13;;;;;;;;;;;24.20;99.90;;;;;;5095339;28;19924;-64
2023/08/16 07:12:40;;;;;;;;;;;24.70;99.90;;;;;;5095774;28;20396;-64
2023/08/16 07:15:07;;;;;;;;;;;25.30;99.90;;;;;;5114095;28;19928;-63
2023/08/16 07:17:33;;;;;;;;;;;25.70;99.90;;;;;;5094979;28;19996;-63
2023/08/16 07:20:00;;;;;;;;;;;26.10;99.90;;;;;;5095837;28;19927;-64
2023/08/16 07:22:27;;;;;;;;;;;25.70;99.90;;;;;;5095364;28;19931;-64
2023/08/16 07:24:53;;;;;;;;;;;25.40;99.90;;;;;;5113274;28;20294;-63
2023/08/16 07:27:22;;;;;;;;;;;24.90;99.90;;;;;;5113892;28;19928;-63
2023/08/16 07:29:48;;;;;;;;;;;24.40;99.90;;;;;;5095745;28;19924;-63
2023/08/16 07:32:15;;;;;;;;;;;25.00;99.90;;;;;;5110530;28;19928;-63
2023/08/16 07:34:43;;;;;;;;;;;25.70;99.90;;;;;;5095225;28;19946;-64
2023/08/16 07:37:11;;;;;;;;;;;26.20;99.90;;;;;;5111346;28;20405;-64
2023/08/16 07:39:37;;;;;;;;;;;26.90;99.90;;;;;;5112669;28;19950;-63
2023/08/16 07:42:06;;;;;;;;;;;27.40;99.90;;;;;;5095001;28;20307;-63
2023/08/16 07:44:34;;;;;;;;;;;27.60;99.10;;;;;;5112877;28;19931;-64
2023/08/16 07:47:01;;;;;;;;;;;28.30;98.10;;;;;;5113001;28;20311;-64
2023/08/16 07:49:28;;;;;;;;;;;28.40;97.40;;;;;;5113445;28;20322;-64
2023/08/16 07:51:56;;;;;;;;;;;28.20;95.40;;;;;;5094454;28;19947;-63
2023/08/16 07:54:23;;;;;;;;;;;28.40;95.40;;;;;;5113451;28;19924;-64
2023/08/16 07:56:50;;;;;;;;;;;28.80;96.50;;;;;;5094994;28;19928;-63
2023/08/16 07:59:17;;;;;;;;;;;28.80;95.40;;;;;;5092250;28;20366;-63
2023/08/16 08:01:45;;;;;;;;;;;29.00;94.40;;;;;;5112963;28;19923;-64
2023/08/16 08:04:12;;;;;;;;;;;29.00;94.50;;;;;;5095081;28;19924;-64
2023/08/16 08:06:39;;;;;;;;;;;29.00;93.70;;;;;;5112472;28;19931;-63
2023/08/16 08:09:05;;;;;;;;;;;29.10;93.80;;;;;;5113051;28;19923;-64
2023/08/16 08:11:32;;;;;;;;;;;29.20;94.20;;;;;;5112760;28;19923;-64
2023/08/16 08:13:59;;;;;;;;;;;29.50;93.00;;;;;;5112397;28;19923;-64
2023/08/16 08:16:25;;;;;;;;;;;29.10;92.90;;;;;;5112965;28;19932;-64
2023/08/16 08:18:54;;;;;;;;;;;29.40;92.20;;;;;;5112857;28;20429;-64
2023/08/16 08:21:20;;;;;;;;;;;29.40;93.40;;;;;;5112314;28;19927;-64
2023/08/16 08:23:47;;;;;;;;;;;29.60;93.10;;;;;;5112755;28;19934;-64
2023/08/16 08:26:14;;;;;;;;;;;29.90;92.70;;;;;;5112716;28;19927;-64
2023/08/16 08:28:41;;;;;;;;;;;30.00;91.90;;;;;;5114620;28;19928;-64
2023/08/16 08:31:07;;;;;;;;;;;30.30;91.40;;;;;;5098806;28;19931;-64
2023/08/16 08:33:34;;;;;;;;;;;29.60;91.50;;;;;;5117067;28;20372;-64
2023/08/16 08:36:03;;;;;;;;;;;30.00;91.30;;;;;;5096133;28;19932;-64
2023/08/16 08:38:30;;;;;;;;;;;30.20;90.60;;;;;;5098806;28;19946;-64
2023/08/16 08:40:57;;;;;;;;;;;30.00;91.20;;;;;;5098154;28;20375;-63
2023/08/16 08:43:26;;;;;;;;;;;30.10;91.70;;;;;;5098449;28;19990;-64
2023/08/16 08:45:53;;;;;;;;;;;30.20;90.90;;;;;;5098435;28;19976;-64
2023/08/16 08:48:20;;;;;;;;;;;30.10;90.60;;;;;;5094403;28;19925;-64
2023/08/16 08:50:47;;;;;;;;;;;30.10;90.90;;;;;;5096287;28;19924;-64
2023/08/16 08:53:16;;;;;;;;;;;30.30;89.40;;;;;;5095051;28;19928;-64
2023/08/16 08:55:44;;;;;;;;;;;30.70;89.80;;;;;;5095757;28;19928;-65
2023/08/16 08:58:11;;;;;;;;;;;30.70;90.10;;;;;;5095122;28;20010;-64
2023/08/16 09:00:39;;;;;;;;;;;30.90;89.40;;;;;;5094780;28;19924;-64
2023/08/16 09:03:07;;;;;;;;;;;31.10;88.30;;;;;;5095845;28;20007;-65
2023/08/16 09:05:36;;;;;;;;;;;30.80;87.60;;;;;;5095118;28;19939;-65
2023/08/16 09:08:04;;;;;;;;;;;31.20;88.90;;;;;;5096203;28;20324;-65
2023/08/16 09:10:35;;;;;;;;;;;31.10;87.10;;;;;;5091987;28;19924;-65
2023/08/16 09:13:02;;;;;;;;;;;31.60;88.40;;;;;;5095958;28;19931;-65
2023/08/16 09:15:28;;;;;;;;;;;31.80;88.00;;;;;;5095007;28;19924;-64
2023/08/16 09:18:05;;;;;;;;;;;31.60;89.40;;;;;;5093762;28;19931;-65
2023/08/16 09:20:32;;;;;;;;;;;31.90;87.40;;;;;;5095877;28;19958;-65
2023/08/16 09:22:59;;;;;;;;;;;31.50;84.80;;;;;;5095211;28;20264;-65
2023/08/16 09:25:26;;;;;;;;;;;31.60;86.20;;;;;;5095876;28;19925;-65
2023/08/16 09:27:54;;;;;;;;;;;31.80;84.60;;;;;;5095746;28;19935;-65
2023/08/16 09:30:23;;;;;;;;;;;32.00;84.10;;;;;;5095023;28;19928;-64
2023/08/16 09:32:52;;;;;;;;;;;31.80;85.10;;;;;;5094329;28;19977;-64
2023/08/16 09:35:19;;;;;;;;;;;31.10;85.10;;;;;;5095272;28;19940;-64
2023/08/16 09:37:46;;;;;;;;;;;30.30;87.20;;;;;;5094662;28;19931;-65
2023/08/16 09:40:13;;;;;;;;;;;30.00;86.70;;;;;;5095073;28;19924;-65
2023/08/16 09:42:40;;;;;;;;;;;30.30;87.80;;;;;;5095544;28;19931;-65
2023/08/16 09:45:09;;;;;;;;;;;30.60;87.20;;;;;;5093703;28;19974;-65
2023/08/16 09:47:42;;;;;;;;;;;31.00;84.00;;;;;;5102035;28;19975;-66
2023/08/16 09:50:10;;;;;;;;;;;31.60;86.00;;;;;;5095954;28;19977;-64
2023/08/16 09:52:39;;;;;;;;;;;31.50;85.60;;;;;;5114097;28;20217;-64
2023/08/16 09:55:08;;;;;;;;;;;31.00;85.20;;;;;;5115354;28;19973;-64
2023/08/16 09:57:35;;;;;;;;;;;30.50;86.60;;;;;;5115533;28;19976;-64
2023/08/16 10:00:04;;;;;;;;;;;30.00;86.20;;;;;;5096641;28;20363;-64
2023/08/16 10:02:32;;;;;;;;;;;29.50;88.00;;;;;;5115374;28;20343;-64
2023/08/16 10:04:59;;;;;;;;;;;29.90;89.30;;;;;;5097418;28;19932;-65
2023/08/16 10:07:27;;;;;;;;;;;30.90;87.10;;;;;;5114548;28;19939;-65
2023/08/16 10:09:54;;;;;;;;;;;31.40;85.30;;;;;;5096879;28;19928;-65
2023/08/16 10:12:21;;;;;;;;;;;31.70;83.00;;;;;;5114412;28;19928;-65
2023/08/16 10:14:47;;;;;;;;;;;32.30;82.70;;;;;;5115318;28;19989;-66
2023/08/16 10:17:15;;;;;;;;;;;32.90;83.70;;;;;;5115264;28;20069;-66
2023/08/16 10:19:43;;;;;;;;;;;32.90;83.50;;;;;;5114628;28;19947;-65
2023/08/16 10:22:14;;;;;;;;;;;32.00;82.30;;;;;;5114978;28;19931;-65
2023/08/16 10:24:42;;;;;;;;;;;32.30;84.50;;;;;;5112765;28;19935;-64
2023/08/16 10:27:09;;;;;;;;;;;32.10;83.10;;;;;;5114141;28;19976;-64
2023/08/16 10:29:38;;;;;;;;;;;31.70;83.70;;;;;;5114939;28;19928;-64
2023/08/16 10:32:07;;;;;;;;;;;31.90;83.90;;;;;;5114668;28;19924;-64
2023/08/16 10:34:34;;;;;;;;;;;32.10;84.00;;;;;;5095955;28;19924;-64
2023/08/16 10:37:03;;;;;;;;;;;32.10;82.70;;;;;;5096151;28;19938;-64
2023/08/16 10:39:30;;;;;;;;;;;31.40;82.50;;;;;;5114978;28;19924;-64
2023/08/16 10:42:02;;;;;;;;;;;30.40;84.30;;;;;;5113900;28;19957;-64
2023/08/16 10:44:29;;;;;;;;;;;30.60;84.80;;;;;;5114768;28;19928;-64
2023/08/16 10:46:56;;;;;;;;;;;30.80;84.20;;;;;;5096153;28;19927;-64
2023/08/16 10:49:23;;;;;;;;;;;31.60;84.50;;;;;;5095588;28;19931;-64
2023/08/16 10:51:50;;;;;;;;;;;31.80;83.20;;;;;;5129966;27;19923;-63
2023/08/16 10:54:19;;;;;;;;;;;32.00;82.30;;;;;;5114405;28;19924;-64
2023/08/16 10:56:48;;;;;;;;;;;31.70;83.50;;;;;;5096003;28;19931;-64
2023/08/16 10:59:15;;;;;;;;;;;31.10;82.60;;;;;;5096180;28;19967;-64
2023/08/16 11:01:45;;;;;;;;;;;30.10;84.00;;;;;;5111554;28;19931;-64
2023/08/16 11:04:12;;;;;;;;;;;30.30;86.70;;;;;;5095966;28;19932;-64
2023/08/16 11:06:40;;;;;;;;;;;31.10;86.20;;;;;;5114282;28;19924;-64
2023/08/16 11:09:06;;;;;;;;;;;31.40;83.30;;;;;;5095408;28;19924;-64
2023/08/16 11:11:35;;;;;;;;;;;31.90;81.30;;;;;;5096259;28;20373;-64
2023/08/16 11:14:02;;;;;;;;;;;32.40;81.90;;;;;;5114042;28;20306;-64
2023/08/16 11:16:28;;;;;;;;;;;32.80;82.30;;;;;;5095171;28;19931;-65
2023/08/16 11:18:59;;;;;;;;;;;33.40;82.50;;;;;;5114078;28;19995;-65
2023/08/16 11:21:25;;;;;;;;;;;33.30;80.70;;;;;;5114151;28;19924;-64
2023/08/16 11:23:54;;;;;;;;;;;33.40;78.80;;;;;;5094984;28;20368;-65
2023/08/16 11:26:20;;;;;;;;;;;33.10;80.50;;;;;;5113949;28;19924;-65
2023/08/16 11:28:49;;;;;;;;;;;33.00;79.60;;;;;;5095591;28;20387;-64
2023/08/16 11:31:15;;;;;;;;;;;32.10;79.30;;;;;;5113051;28;19923;-64
2023/08/16 11:33:43;;;;;;;;;;;31.90;81.00;;;;;;5095314;28;19927;-64
2023/08/16 11:36:11;;;;;;;;;;;32.50;81.80;;;;;;5113629;28;19931;-64
2023/08/16 11:38:38;;;;;;;;;;;33.00;79.80;;;;;;5112989;28;19924;-64
2023/08/16 11:41:06;;;;;;;;;;;33.50;78.70;;;;;;5095196;28;20011;-64
2023/08/16 11:43:33;;;;;;;;;;;33.20;79.30;;;;;;5095312;28;20268;-65
2023/08/16 11:46:04;;;;;;;;;;;32.30;80.00;;;;;;5111100;28;20384;-64
2023/08/16 11:48:31;;;;;;;;;;;31.50;80.90;;;;;;5112929;28;20403;-64
2023/08/16 11:50:58;;;;;;;;;;;30.70;82.60;;;;;;5112939;28;20114;-64
2023/08/16 11:53:31;;;;;;;;;;;30.70;83.40;;;;;;5113004;28;20387;-65
2023/08/16 11:55:58;;;;;;;;;;;31.20;83.30;;;;;;5113146;28;20414;-65
2023/08/16 11:58:25;;;;;;;;;;;31.30;81.80;;;;;;5112599;28;20295;-65
2023/08/16 12:00:52;;;;;;;;;;;31.00;81.80;;;;;;5113192;28;19928;-65
2023/08/16 12:03:20;;;;;;;;;;;30.90;82.10;;;;;;5112259;28;19927;-65
2023/08/16 12:05:49;;;;;;;;;;;30.90;82.10;;;;;;5112603;28;20399;-65
2023/08/16 12:08:20;;;;;;;;;;;30.80;83.80;;;;;;5113188;28;20280;-65
2023/08/16 12:10:51;;;;;;;;;;;30.10;83.80;;;;;;5113173;28;19924;-65
2023/08/16 12:13:18;;;;;;;;;;;30.40;85.30;;;;;;5094439;28;19931;-65
2023/08/16 12:15:45;;;;;;;;;;;29.90;84.10;;;;;;5094775;28;19924;-64
2023/08/16 12:18:14;;;;;;;;;;;30.30;85.00;;;;;;5094943;28;19981;-65
2023/08/16 12:20:42;;;;;;;;;;;31.20;84.00;;;;;;5112333;28;19930;-65
2023/08/16 12:23:09;;;;;;;;;;;32.10;83.30;;;;;;5112785;28;20460;-65
2023/08/16 12:25:36;;;;;;;;;;;32.30;82.00;;;;;;5112921;28;20292;-66
2023/08/16 12:28:03;;;;;;;;;;;33.10;81.60;;;;;;5094175;28;19935;-65
2023/08/16 12:30:30;;;;;;;;;;;33.50;81.60;;;;;;5094849;28;19924;-65
2023/08/16 12:32:56;;;;;;;;;;;33.60;79.50;;;;;;5094010;28;19924;-64
2023/08/16 12:35:23;;;;;;;;;;;33.60;79.40;;;;;;5112740;28;19934;-63
2023/08/16 12:37:51;;;;;;;;;;;33.90;80.60;;;;;;5092625;28;19931;-63
2023/08/16 12:40:18;;;;;;;;;;;33.80;79.70;;;;;;5112235;28;19924;-64
2023/08/16 12:42:45;;;;;;;;;;;33.50;80.20;;;;;;5113028;28;19924;-65
2023/08/16 12:45:12;;;;;;;;;;;33.30;79.40;;;;;;5112885;28;19924;-64
2023/08/16 12:47:38;;;;;;;;;;;32.60;79.30;;;;;;5112128;28;19924;-64
2023/08/16 12:50:06;;;;;;;;;;;31.80;79.80;;;;;;5112781;28;19931;-64
2023/08/16 12:52:33;;;;;;;;;;;31.10;80.70;;;;;;5112702;28;19946;-65
2023/08/16 12:55:01;;;;;;;;;;;30.30;82.20;;;;;;5112121;28;20267;-65
2023/08/16 12:57:29;;;;;;;;;;;29.70;83.30;;;;;;5094623;28;19924;-64
2023/08/16 12:59:56;;;;;;;;;;;29.70;84.50;;;;;;5112768;28;19969;-64
2023/08/16 13:02:22;;;;;;;;;;;29.40;84.20;;;;;;5112149;28;20389;-64
2023/08/16 13:04:49;;;;;;;;;;;29.60;84.40;;;;;;5094110;28;19931;-64
2023/08/16 13:07:16;;;;;;;;;;;29.70;85.20;;;;;;5112467;28;19963;-64
2023/08/16 13:09:43;;;;;;;;;;;30.70;85.30;;;;;;5111855;28;19927;-65
2023/08/16 13:12:11;;;;;;;;;;;31.40;84.30;;;;;;5094490;28;20410;-63
2023/08/16 13:14:38;;;;;;;;;;;31.40;83.20;;;;;;5114584;28;21908;-64
2023/08/16 13:17:04;;;;;;;;;;;30.80;82.50;;;;;;5115651;28;19923;-64
2023/08/16 13:19:31;;;;;;;;;;;29.80;83.30;;;;;;5098213;28;20268;-64
2023/08/16 13:21:58;;;;;;;;;;;29.10;84.70;;;;;;5114282;28;19924;-64
2023/08/16 13:24:25;;;;;;;;;;;28.60;85.40;;;;;;5115503;28;19923;-64
2023/08/16 13:26:52;;;;;;;;;;;29.20;85.80;;;;;;5098209;28;19928;-64
2023/08/16 13:29:20;;;;;;;;;;;29.40;85.40;;;;;;5115495;28;20349;-64
2023/08/16 13:31:47;;;;;;;;;;;29.50;83.70;;;;;;5098040;28;19924;-64
2023/08/16 13:34:13;;;;;;;;;;;29.90;83.90;;;;;;5097781;28;19936;-65
2023/08/16 13:36:40;;;;;;;;;;;29.80;84.00;;;;;;5097023;28;19924;-64
2023/08/16 13:39:07;;;;;;;;;;;30.00;83.90;;;;;;5115707;28;19924;-64
2023/08/16 13:41:34;;;;;;;;;;;30.70;84.00;;;;;;5116183;28;19924;-64
2023/08/16 13:44:01;;;;;;;;;;;31.50;81.70;;;;;;5096958;28;19927;-64
2023/08/16 13:46:32;;;;;;;;;;;32.00;81.90;;;;;;5097909;28;20390;-63
2023/08/16 13:48:59;;;;;;;;;;;32.20;79.60;;;;;;5097219;28;19923;-64
2023/08/16 13:51:25;;;;;;;;;;;32.60;80.80;;;;;;5114898;28;19924;-64
2023/08/16 13:53:52;;;;;;;;;;;33.30;80.50;;;;;;5097640;28;19979;-64
2023/08/16 13:56:19;;;;;;;;;;;33.50;79.40;;;;;;5115409;28;19931;-64
2023/08/16 13:58:45;;;;;;;;;;;33.50;78.00;;;;;;5114980;28;19977;-64
2023/08/16 14:01:12;;;;;;;;;;;33.60;78.40;;;;;;5115586;28;19930;-65
2023/08/16 14:03:40;;;;;;;;;;;33.90;77.70;;;;;;5097350;28;20320;-64
2023/08/16 14:06:07;;;;;;;;;;;33.60;76.90;;;;;;5114603;28;20369;-65
2023/08/16 14:08:34;;;;;;;;;;;33.50;77.30;;;;;;5115377;28;19939;-65
2023/08/16 14:11:01;;;;;;;;;;;33.60;77.80;;;;;;5115421;28;19931;-65
2023/08/16 14:13:27;;;;;;;;;;;33.60;77.30;;;;;;5114507;28;19932;-65
2023/08/16 14:15:55;;;;;;;;;;;33.80;77.80;;;;;;5096631;28;19928;-65